sensor_id;sensor_type;location;lat;lon;timestamp;temperature;humidity
5200;DHT22;2619;47.868;11.892;2022-07-11T00:01:34;14.60;99.90
5200;DHT22;2619;47.868;11.892;2022-07-11T00:04:00;14.60;99.90
5200;DHT22;2619;47.868;11.892;2022-07-11T00:06:26;14.60;99.90
5200;DHT22;2619;47.868;11.892;2022-07-11T00:08:51;14.50;99.90
5200;DHT22;2619;47.868;11.892;2022-07-11T00:11:17;14.50;99.90
5200;DHT22;2619;47.868;11.892;2022-07-11T00:13:42;14.40;99.90
5200;DHT22;2619;47.868;11.892;2022-07-11T00:16:08;14.40;99.90
5200;DHT22;2619;47.868;11.892;2022-07-11T00:18:33;14.40;99.90
5200;DHT22;2619;47.868;11.892;2022-07-11T00:20:59;14.50;99.90
5200;DHT22;2619;47.868;11.892;2022-07-11T00:23:25;14.50;99.90
5200;DHT22;2619;47.868;11.892;2022-07-11T00:25:51;14.60;99.90
5200;DHT22;2619;47.868;11.892;2022-07-11T00:28:16;14.50;99.90
5200;DHT22;2619;47.868;11.892;2022-07-11T00:30:42;14.50;99.90
5200;DHT22;2619;47.868;11.892;2022-07-11T00:33:07;14.50;99.90
5200;DHT22;2619;47.868;11.892;2022-07-11T00:35:33;14.50;99.90
5200;DHT22;2619;47.868;11.892;2022-07-11T00:38:00;14.40;99.90
5200;DHT22;2619;47.868;11.892;2022-07-11T00:40:26;14.30;99.90
5200;DHT22;2619;47.868;11.892;2022-07-11T00:42:52;14.40;99.90
5200;DHT22;2619;47.868;11.892;2022-07-11T00:45:17;14.30;99.90
5200;DHT22;2619;47.868;11.892;2022-07-11T00:47:43;14.20;99.90
5200;DHT22;2619;47.868;11.892;2022-07-11T00:50:09;14.10;99.90
5200;DHT22;2619;47.868;11.892;2022-07-11T00:52:35;14.10;99.90
5200;DHT22;2619;47.868;11.892;2022-07-11T00:55:02;14.10;99.90
5200;DHT22;2619;47.868;11.892;2022-07-11T00:57:30;14.00;99.90
5200;DHT22;2619;47.868;11.892;2022-07-11T00:59:56;14.00;99.90
5200;DHT22;2619;47.868;11.892;2022-07-11T01:02:22;14.00;99.90
5200;DHT22;2619;47.868;11.892;2022-07-11T01:04:47;14.00;99.90
5200;DHT22;2619;47.868;11.892;2022-07-11T01:07:13;14.10;99.90
5200;DHT22;2619;47.868;11.892;2022-07-11T01:09:39;14.10;99.90
5200;DHT22;2619;47.868;11.892;2022-07-11T01:12:05;14.10;99.90
5200;DHT22;2619;47.868;11.892;2022-07-11T01:14:31;14.10;99.90
5200;DHT22;2619;47.868;11.892;2022-07-11T01:16:56;14.10;99.90
5200;DHT22;2619;47.868;11.892;2022-07-11T01:19:22;14.10;99.90
5200;DHT22;2619;47.868;11.892;2022-07-11T01:21:49;14.10;99.90
5200;DHT22;2619;47.868;11.892;2022-07-11T01:24:15;14.10;99.90
5200;DHT22;2619;47.868;11.892;2022-07-11T01:26:42;14.10;99.90
5200;DHT22;2619;47.868;11.892;2022-07-11T01:29:14;14.10;99.90
5200;DHT22;2619;47.868;11.892;2022-07-11T01:31:40;14.10;99.90
5200;DHT22;2619;47.868;11.892;2022-07-11T01:34:06;14.00;99.90
5200;DHT22;2619;47.868;11.892;2022-07-11T01:36:32;14.00;99.90
5200;DHT22;2619;47.868;11.892;2022-07-11T01:38:58;13.90;99.90
5200;DHT22;2619;47.868;11.892;2022-07-11T01:41:24;13.90;99.90
5200;DHT22;2619;47.868;11.892;2022-07-11T01:43:50;13.90;99.90
5200;DHT22;2619;47.868;11.892;2022-07-11T01:46:15;13.80;99.90
5200;DHT22;2619;47.868;11.892;2022-07-11T01:48:43;13.80;99.90
5200;DHT22;2619;47.868;11.892;2022-07-11T01:51:09;13.90;99.90
5200;DHT22;2619;47.868;11.892;2022-07-11T01:53:35;13.90;99.90
5200;DHT22;2619;47.868;11.892;2022-07-11T01:56:00;13.90;99.90
5200;DHT22;2619;47.868;11.892;2022-07-11T01:58:26;14.00;99.90
5200;DHT22;2619;47.868;11.892;2022-07-11T02:00:52;14.00;99.90
5200;DHT22;2619;47.868;11.892;2022-07-11T02:03:18;13.90;99.90
5200;DHT22;2619;47.868;11.892;2022-07-11T02:05:43;14.00;99.90
5200;DHT22;2619;47.868;11.892;2022-07-11T02:08:10;13.90;99.90
5200;DHT22;2619;47.868;11.892;2022-07-11T02:10:46;14.00;99.90
5200;DHT22;2619;47.868;11.892;2022-07-11T02:13:14;13.90;99.90
5200;DHT22;2619;47.868;11.892;2022-07-11T02:15:41;13.90;99.90
5200;DHT22;2619;47.868;11.892;2022-07-11T02:18:07;13.90;99.90
5200;DHT22;2619;47.868;11.892;2022-07-11T02:20:33;13.90;99.90
5200;DHT22;2619;47.868;11.892;2022-07-11T02:22:59;13.90;99.90
5200;DHT22;2619;47.868;11.892;2022-07-11T02:25:25;13.80;99.90
5200;DHT22;2619;47.868;11.892;2022-07-11T02:27:50;13.80;99.90
5200;DHT22;2619;47.868;11.892;2022-07-11T02:30:16;13.80;99.90
5200;DHT22;2619;47.868;11.892;2022-07-11T02:32:42;13.80;99.90
5200;DHT22;2619;47.868;11.892;2022-07-11T02:35:08;13.90;99.90
5200;DHT22;2619;47.868;11.892;2022-07-11T02:37:34;13.90;99.90
5200;DHT22;2619;47.868;11.892;2022-07-11T02:39:59;13.90;99.90
5200;DHT22;2619;47.868;11.892;2022-07-11T02:42:25;13.90;99.90
5200;DHT22;2619;47.868;11.892;2022-07-11T02:44:51;13.80;99.90
5200;DHT22;2619;47.868;11.892;2022-07-11T02:47:16;13.80;99.90
5200;DHT22;2619;47.868;11.892;2022-07-11T02:49:42;13.90;99.90
5200;DHT22;2619;47.868;11.892;2022-07-11T02:52:08;13.90;99.90
5200;DHT22;2619;47.868;11.892;2022-07-11T02:54:34;13.90;99.90
5200;DHT22;2619;47.868;11.892;2022-07-11T02:57:00;13.80;99.90
5200;DHT22;2619;47.868;11.892;2022-07-11T02:59:26;13.90;99.90
5200;DHT22;2619;47.868;11.892;2022-07-11T03:01:52;13.90;99.90
5200;DHT22;2619;47.868;11.892;2022-07-11T03:04:17;13.90;99.90
5200;DHT22;2619;47.868;11.892;2022-07-11T03:06:43;13.90;99.90
5200;DHT22;2619;47.868;11.892;2022-07-11T03:09:09;13.80;99.90
5200;DHT22;2619;47.868;11.892;2022-07-11T03:11:35;13.80;99.90
5200;DHT22;2619;47.868;11.892;2022-07-11T03:14:01;13.80;99.90
5200;DHT22;2619;47.868;11.892;2022-07-11T03:16:27;13.80;99.90
5200;DHT22;2619;47.868;11.892;2022-07-11T03:18:54;13.80;99.90
5200;DHT22;2619;47.868;11.892;2022-07-11T03:21:19;13.80;99.90
5200;DHT22;2619;47.868;11.892;2022-07-11T03:23:45;13.80;99.90
5200;DHT22;2619;47.868;11.892;2022-07-11T03:26:11;13.80;99.90
5200;DHT22;2619;47.868;11.892;2022-07-11T03:28:37;13.80;99.90
5200;DHT22;2619;47.868;11.892;2022-07-11T03:31:03;13.80;99.90
5200;DHT22;2619;47.868;11.892;2022-07-11T03:33:29;13.80;99.90
5200;DHT22;2619;47.868;11.892;2022-07-11T03:35:54;13.80;99.90
5200;DHT22;2619;47.868;11.892;2022-07-11T03:38:20;13.80;99.90
5200;DHT22;2619;47.868;11.892;2022-07-11T03:40:46;13.90;99.90
5200;DHT22;2619;47.868;11.892;2022-07-11T03:43:13;13.80;99.90
5200;DHT22;2619;47.868;11.892;2022-07-11T03:45:39;13.80;99.90
5200;DHT22;2619;47.868;11.892;2022-07-11T03:48:05;13.80;99.90
5200;DHT22;2619;47.868;11.892;2022-07-11T03:50:33;13.80;99.90
5200;DHT22;2619;47.868;11.892;2022-07-11T03:52:58;13.90;99.90
5200;DHT22;2619;47.868;11.892;2022-07-11T03:55:24;13.90;99.90
5200;DHT22;2619;47.868;11.892;2022-07-11T03:57:50;13.90;99.90
5200;DHT22;2619;47.868;11.892;2022-07-11T04:00:17;14.00;99.90
5200;DHT22;2619;47.868;11.892;2022-07-11T04:02:45;14.10;99.90
5200;DHT22;2619;47.868;11.892;2022-07-11T04:05:12;14.10;99.90
5200;DHT22;2619;47.868;11.892;2022-07-11T04:07:37;14.20;99.90
5200;DHT22;2619;47.868;11.892;2022-07-11T04:10:03;14.30;99.90
5200;DHT22;2619;47.868;11.892;2022-07-11T04:12:29;14.20;99.90
5200;DHT22;2619;47.868;11.892;2022-07-11T04:14:54;14.30;99.90
5200;DHT22;2619;47.868;11.892;2022-07-11T04:17:20;14.40;99.90
5200;DHT22;2619;47.868;11.892;2022-07-11T04:19:46;14.40;99.90
5200;DHT22;2619;47.868;11.892;2022-07-11T04:22:11;14.60;99.90
5200;DHT22;2619;47.868;11.892;2022-07-11T04:24:37;14.60;99.90
5200;DHT22;2619;47.868;11.892;2022-07-11T04:27:03;14.70;99.90
5200;DHT22;2619;47.868;11.892;2022-07-11T04:29:29;14.80;99.90
5200;DHT22;2619;47.868;11.892;2022-07-11T04:31:55;14.90;99.90
5200;DHT22;2619;47.868;11.892;2022-07-11T04:34:20;15.00;99.90
5200;DHT22;2619;47.868;11.892;2022-07-11T04:36:46;15.10;99.90
5200;DHT22;2619;47.868;11.892;2022-07-11T04:39:12;15.10;99.90
5200;DHT22;2619;47.868;11.892;2022-07-11T04:41:38;15.30;99.90
5200;DHT22;2619;47.868;11.892;2022-07-11T04:44:04;15.50;99.90
5200;DHT22;2619;47.868;11.892;2022-07-11T04:46:29;15.50;99.90
5200;DHT22;2619;47.868;11.892;2022-07-11T04:48:57;15.70;99.90
5200;DHT22;2619;47.868;11.892;2022-07-11T04:51:23;15.70;99.90
5200;DHT22;2619;47.868;11.892;2022-07-11T04:53:50;15.90;99.90
5200;DHT22;2619;47.868;11.892;2022-07-11T04:56:16;16.10;99.90
5200;DHT22;2619;47.868;11.892;2022-07-11T04:58:41;16.10;99.90
5200;DHT22;2619;47.868;11.892;2022-07-11T05:01:07;16.10;99.90
5200;DHT22;2619;47.868;11.892;2022-07-11T05:03:33;16.20;99.90
5200;DHT22;2619;47.868;11.892;2022-07-11T05:05:58;16.40;99.90
5200;DHT22;2619;47.868;11.892;2022-07-11T05:08:24;16.60;99.90
5200;DHT22;2619;47.868;11.892;2022-07-11T05:10:50;16.50;99.90
5200;DHT22;2619;47.868;11.892;2022-07-11T05:13:15;16.70;99.90
5200;DHT22;2619;47.868;11.892;2022-07-11T05:15:41;16.80;99.90
5200;DHT22;2619;47.868;11.892;2022-07-11T05:18:06;17.00;99.90
5200;DHT22;2619;47.868;11.892;2022-07-11T05:20:32;17.20;99.90
5200;DHT22;2619;47.868;11.892;2022-07-11T05:22:58;17.30;99.90
5200;DHT22;2619;47.868;11.892;2022-07-11T05:25:24;17.50;99.90
5200;DHT22;2619;47.868;11.892;2022-07-11T05:27:50;17.70;99.90
5200;DHT22;2619;47.868;11.892;2022-07-11T05:30:16;17.70;99.90
5200;DHT22;2619;47.868;11.892;2022-07-11T05:32:42;17.90;99.90
5200;DHT22;2619;47.868;11.892;2022-07-11T05:35:08;18.00;99.90
5200;DHT22;2619;47.868;11.892;2022-07-11T05:37:33;17.90;99.90
5200;DHT22;2619;47.868;11.892;2022-07-11T05:39:59;18.00;99.90
5200;DHT22;2619;47.868;11.892;2022-07-11T05:42:25;18.10;99.90
5200;DHT22;2619;47.868;11.892;2022-07-11T05:44:50;18.00;99.90
5200;DHT22;2619;47.868;11.892;2022-07-11T05:47:16;18.30;99.90
5200;DHT22;2619;47.868;11.892;2022-07-11T05:49:42;18.70;99.90
5200;DHT22;2619;47.868;11.892;2022-07-11T05:52:08;18.90;99.90
5200;DHT22;2619;47.868;11.892;2022-07-11T05:54:34;18.70;99.90
5200;DHT22;2619;47.868;11.892;2022-07-11T05:57:00;18.60;99.90
5200;DHT22;2619;47.868;11.892;2022-07-11T05:59:29;18.80;99.90
5200;DHT22;2619;47.868;11.892;2022-07-11T06:01:55;19.30;99.90
5200;DHT22;2619;47.868;11.892;2022-07-11T06:04:20;19.60;99.90
5200;DHT22;2619;47.868;11.892;2022-07-11T06:06:46;19.90;99.90
5200;DHT22;2619;47.868;11.892;2022-07-11T06:09:12;20.00;99.90
5200;DHT22;2619;47.868;11.892;2022-07-11T06:11:38;20.30;99.90
5200;DHT22;2619;47.868;11.892;2022-07-11T06:14:03;20.50;99.90
5200;DHT22;2619;47.868;11.892;2022-07-11T06:16:31;20.70;99.90
5200;DHT22;2619;47.868;11.892;2022-07-11T06:18:57;20.90;99.90
5200;DHT22;2619;47.868;11.892;2022-07-11T06:21:23;21.20;99.90
5200;DHT22;2619;47.868;11.892;2022-07-11T06:23:50;22.50;98.70
5200;DHT22;2619;47.868;11.892;2022-07-11T06:26:16;22.90;97.80
5200;DHT22;2619;47.868;11.892;2022-07-11T06:28:42;23.90;98.10
5200;DHT22;2619;47.868;11.892;2022-07-11T06:31:08;24.10;95.50
5200;DHT22;2619;47.868;11.892;2022-07-11T06:33:34;24.10;95.40
5200;DHT22;2619;47.868;11.892;2022-07-11T06:36:03;24.60;93.50
5200;DHT22;2619;47.868;11.892;2022-07-11T06:38:30;24.50;92.70
5200;DHT22;2619;47.868;11.892;2022-07-11T06:40:56;24.50;92.10
5200;DHT22;2619;47.868;11.892;2022-07-11T06:43:22;25.50;90.60
5200;DHT22;2619;47.868;11.892;2022-07-11T06:45:48;26.20;87.10
5200;DHT22;2619;47.868;11.892;2022-07-11T06:48:13;26.20;84.90
5200;DHT22;2619;47.868;11.892;2022-07-11T06:50:40;26.10;83.20
5200;DHT22;2619;47.868;11.892;2022-07-11T06:53:06;26.70;78.20
5200;DHT22;2619;47.868;11.892;2022-07-11T06:55:33;27.60;82.10
5200;DHT22;2619;47.868;11.892;2022-07-11T06:57:59;27.70;81.90
5200;DHT22;2619;47.868;11.892;2022-07-11T07:00:25;27.10;83.10
5200;DHT22;2619;47.868;11.892;2022-07-11T07:02:51;26.30;83.70
5200;DHT22;2619;47.868;11.892;2022-07-11T07:05:17;26.40;79.10
5200;DHT22;2619;47.868;11.892;2022-07-11T07:07:42;26.40;80.60
5200;DHT22;2619;47.868;11.892;2022-07-11T07:10:08;26.90;81.80
5200;DHT22;2619;47.868;11.892;2022-07-11T07:12:39;27.30;79.60
5200;DHT22;2619;47.868;11.892;2022-07-11T07:15:05;27.50;82.70
5200;DHT22;2619;47.868;11.892;2022-07-11T07:17:31;28.10;79.70
5200;DHT22;2619;47.868;11.892;2022-07-11T07:19:57;27.70;73.90
5200;DHT22;2619;47.868;11.892;2022-07-11T07:22:22;27.50;75.50
5200;DHT22;2619;47.868;11.892;2022-07-11T07:24:48;27.30;77.40
5200;DHT22;2619;47.868;11.892;2022-07-11T07:27:14;27.80;76.50
5200;DHT22;2619;47.868;11.892;2022-07-11T07:29:39;28.00;70.90
5200;DHT22;2619;47.868;11.892;2022-07-11T07:32:06;28.20;71.00
5200;DHT22;2619;47.868;11.892;2022-07-11T07:34:32;28.00;74.60
5200;DHT22;2619;47.868;11.892;2022-07-11T07:36:58;27.90;72.70
5200;DHT22;2619;47.868;11.892;2022-07-11T07:39:24;28.00;70.30
5200;DHT22;2619;47.868;11.892;2022-07-11T07:41:50;26.70;73.00
5200;DHT22;2619;47.868;11.892;2022-07-11T07:44:15;26.00;72.30
5200;DHT22;2619;47.868;11.892;2022-07-11T07:46:41;26.50;70.30
5200;DHT22;2619;47.868;11.892;2022-07-11T07:49:06;27.00;74.50
5200;DHT22;2619;47.868;11.892;2022-07-11T07:51:32;26.80;74.50
5200;DHT22;2619;47.868;11.892;2022-07-11T07:53:58;25.90;73.20
5200;DHT22;2619;47.868;11.892;2022-07-11T07:56:24;25.10;73.90
5200;DHT22;2619;47.868;11.892;2022-07-11T07:58:50;24.50;75.70
5200;DHT22;2619;47.868;11.892;2022-07-11T08:01:18;24.00;75.30
5200;DHT22;2619;47.868;11.892;2022-07-11T08:04:08;23.50;74.10
5200;DHT22;2619;47.868;11.892;2022-07-11T08:06:35;23.60;75.50
5200;DHT22;2619;47.868;11.892;2022-07-11T08:09:02;23.70;79.80
5200;DHT22;2619;47.868;11.892;2022-07-11T08:11:28;23.80;78.80
5200;DHT22;2619;47.868;11.892;2022-07-11T08:13:54;24.20;76.30
5200;DHT22;2619;47.868;11.892;2022-07-11T08:16:20;24.70;76.10
5200;DHT22;2619;47.868;11.892;2022-07-11T08:18:45;24.70;75.40
5200;DHT22;2619;47.868;11.892;2022-07-11T08:21:11;24.70;76.50
5200;DHT22;2619;47.868;11.892;2022-07-11T08:23:37;24.80;76.40
5200;DHT22;2619;47.868;11.892;2022-07-11T08:26:03;24.20;75.60
5200;DHT22;2619;47.868;11.892;2022-07-11T08:28:29;24.00;77.30
5200;DHT22;2619;47.868;11.892;2022-07-11T08:30:54;23.90;77.20
5200;DHT22;2619;47.868;11.892;2022-07-11T08:33:20;23.60;75.50
5200;DHT22;2619;47.868;11.892;2022-07-11T08:35:45;24.00;79.50
5200;DHT22;2619;47.868;11.892;2022-07-11T08:38:11;24.30;78.20
5200;DHT22;2619;47.868;11.892;2022-07-11T08:40:40;24.60;73.30
5200;DHT22;2619;47.868;11.892;2022-07-11T08:43:16;24.50;81.20
5200;DHT22;2619;47.868;11.892;2022-07-11T08:45:43;24.50;73.70
5200;DHT22;2619;47.868;11.892;2022-07-11T08:48:09;24.40;82.00
5200;DHT22;2619;47.868;11.892;2022-07-11T08:50:35;24.20;75.30
5200;DHT22;2619;47.868;11.892;2022-07-11T08:53:03;23.80;79.70
5200;DHT22;2619;47.868;11.892;2022-07-11T08:55:29;24.10;80.40
5200;DHT22;2619;47.868;11.892;2022-07-11T08:57:55;24.30;77.80
5200;DHT22;2619;47.868;11.892;2022-07-11T09:00:22;24.00;81.10
5200;DHT22;2619;47.868;11.892;2022-07-11T09:02:49;23.60;79.60
5200;DHT22;2619;47.868;11.892;2022-07-11T09:05:15;24.00;83.90
5200;DHT22;2619;47.868;11.892;2022-07-11T09:07:46;24.20;78.20
5200;DHT22;2619;47.868;11.892;2022-07-11T09:10:12;24.70;79.10
5200;DHT22;2619;47.868;11.892;2022-07-11T09:13:02;24.80;76.40
5200;DHT22;2619;47.868;11.892;2022-07-11T09:15:36;24.70;83.60
5200;DHT22;2619;47.868;11.892;2022-07-11T09:18:04;24.30;81.30
5200;DHT22;2619;47.868;11.892;2022-07-11T09:21:32;24.90;80.10
5200;DHT22;2619;47.868;11.892;2022-07-11T09:24:04;24.60;81.10
5200;DHT22;2619;47.868;11.892;2022-07-11T09:26:50;25.70;78.30
5200;DHT22;2619;47.868;11.892;2022-07-11T09:29:18;26.10;72.50
5200;DHT22;2619;47.868;11.892;2022-07-11T09:31:48;26.70;76.30
5200;DHT22;2619;47.868;11.892;2022-07-11T09:34:20;26.40;75.30
5200;DHT22;2619;47.868;11.892;2022-07-11T09:36:47;26.00;75.50
5200;DHT22;2619;47.868;11.892;2022-07-11T09:39:21;26.20;75.30
5200;DHT22;2619;47.868;11.892;2022-07-11T09:41:49;25.90;72.00
5200;DHT22;2619;47.868;11.892;2022-07-11T09:44:20;25.60;74.20
5200;DHT22;2619;47.868;11.892;2022-07-11T09:46:48;25.30;78.30
5200;DHT22;2619;47.868;11.892;2022-07-11T09:49:15;25.20;76.20
5200;DHT22;2619;47.868;11.892;2022-07-11T09:51:42;25.30;80.20
5200;DHT22;2619;47.868;11.892;2022-07-11T09:54:09;25.00;79.10
5200;DHT22;2619;47.868;11.892;2022-07-11T09:56:44;24.60;77.60
5200;DHT22;2619;47.868;11.892;2022-07-11T09:59:11;24.60;79.60
5200;DHT22;2619;47.868;11.892;2022-07-11T10:01:39;24.50;79.30
5200;DHT22;2619;47.868;11.892;2022-07-11T10:04:07;24.30;81.40
5200;DHT22;2619;47.868;11.892;2022-07-11T10:06:33;24.40;79.80
5200;DHT22;2619;47.868;11.892;2022-07-11T10:08:59;24.60;78.70
5200;DHT22;2619;47.868;11.892;2022-07-11T10:11:25;24.50;79.70
5200;DHT22;2619;47.868;11.892;2022-07-11T10:13:51;24.80;75.50
5200;DHT22;2619;47.868;11.892;2022-07-11T10:19:55;25.50;78.60
5200;DHT22;2619;47.868;11.892;2022-07-11T10:24:59;25.60;79.60
5200;DHT22;2619;47.868;11.892;2022-07-11T10:27:36;26.30;76.50
5200;DHT22;2619;47.868;11.892;2022-07-11T10:30:04;26.80;74.30
5200;DHT22;2619;47.868;11.892;2022-07-11T10:32:30;26.40;75.30
5200;DHT22;2619;47.868;11.892;2022-07-11T10:35:11;25.90;75.90
5200;DHT22;2619;47.868;11.892;2022-07-11T10:37:51;26.10;75.80
5200;DHT22;2619;47.868;11.892;2022-07-11T10:40:49;26.10;77.50
5200;DHT22;2619;47.868;11.892;2022-07-11T10:43:31;26.10;79.40
5200;DHT22;2619;47.868;11.892;2022-07-11T10:48:36;26.40;74.60
5200;DHT22;2619;47.868;11.892;2022-07-11T10:51:24;26.40;76.30
5200;DHT22;2619;47.868;11.892;2022-07-11T10:53:50;26.50;75.40
5200;DHT22;2619;47.868;11.892;2022-07-11T10:59:20;26.20;73.70
5200;DHT22;2619;47.868;11.892;2022-07-11T11:04:47;24.70;77.30
5200;DHT22;2619;47.868;11.892;2022-07-11T11:07:29;24.50;78.30
5200;DHT22;2619;47.868;11.892;2022-07-11T11:09:56;25.00;76.70
5200;DHT22;2619;47.868;11.892;2022-07-11T11:15:49;26.00;80.30
5200;DHT22;2619;47.868;11.892;2022-07-11T11:24:01;27.20;69.50
5200;DHT22;2619;47.868;11.892;2022-07-11T11:29:08;26.60;73.50
5200;DHT22;2619;47.868;11.892;2022-07-11T11:31:34;26.60;76.10
5200;DHT22;2619;47.868;11.892;2022-07-11T11:34:01;26.70;75.80
5200;DHT22;2619;47.868;11.892;2022-07-11T11:36:28;26.80;77.20
5200;DHT22;2619;47.868;11.892;2022-07-11T11:38:54;26.60;75.40
5200;DHT22;2619;47.868;11.892;2022-07-11T11:41:28;26.70;74.30
5200;DHT22;2619;47.868;11.892;2022-07-11T11:43:56;26.90;78.70
5200;DHT22;2619;47.868;11.892;2022-07-11T11:46:32;27.60;75.70
5200;DHT22;2619;47.868;11.892;2022-07-11T11:49:02;27.70;73.10
5200;DHT22;2619;47.868;11.892;2022-07-11T11:51:30;26.60;74.60
5200;DHT22;2619;47.868;11.892;2022-07-11T11:54:00;26.40;77.90
5200;DHT22;2619;47.868;11.892;2022-07-11T11:56:30;26.50;77.00
5200;DHT22;2619;47.868;11.892;2022-07-11T12:01:31;26.80;75.50
5200;DHT22;2619;47.868;11.892;2022-07-11T12:03:59;26.90;76.10
5200;DHT22;2619;47.868;11.892;2022-07-11T12:06:27;26.60;75.80
5200;DHT22;2619;47.868;11.892;2022-07-11T12:09:11;26.40;73.10
5200;DHT22;2619;47.868;11.892;2022-07-11T12:11:42;26.20;74.30
5200;DHT22;2619;47.868;11.892;2022-07-11T12:14:11;26.50;72.90
5200;DHT22;2619;47.868;11.892;2022-07-11T12:16:44;26.50;71.90
5200;DHT22;2619;47.868;11.892;2022-07-11T12:19:21;25.90;75.30
5200;DHT22;2619;47.868;11.892;2022-07-11T12:21:52;25.30;80.00
5200;DHT22;2619;47.868;11.892;2022-07-11T12:24:23;25.50;76.40
5200;DHT22;2619;47.868;11.892;2022-07-11T12:26:50;25.90;77.50
5200;DHT22;2619;47.868;11.892;2022-07-11T12:29:23;25.90;77.90
5200;DHT22;2619;47.868;11.892;2022-07-11T12:34:17;25.80;77.40
5200;DHT22;2619;47.868;11.892;2022-07-11T12:36:44;25.80;75.60
5200;DHT22;2619;47.868;11.892;2022-07-11T12:39:30;26.00;76.20
5200;DHT22;2619;47.868;11.892;2022-07-11T12:41:58;26.20;77.70
5200;DHT22;2619;47.868;11.892;2022-07-11T12:44:28;26.00;75.60
5200;DHT22;2619;47.868;11.892;2022-07-11T12:47:14;25.70;78.40
5200;DHT22;2619;47.868;11.892;2022-07-11T12:49:40;25.80;78.30
5200;DHT22;2619;47.868;11.892;2022-07-11T12:52:13;25.70;78.60
5200;DHT22;2619;47.868;11.892;2022-07-11T12:54:39;25.70;77.70
5200;DHT22;2619;47.868;11.892;2022-07-11T12:57:05;25.50;76.10
5200;DHT22;2619;47.868;11.892;2022-07-11T12:59:33;25.60;76.80
5200;DHT22;2619;47.868;11.892;2022-07-11T13:02:08;25.90;78.60
5200;DHT22;2619;47.868;11.892;2022-07-11T13:04:48;25.80;77.20
5200;DHT22;2619;47.868;11.892;2022-07-11T13:07:31;25.70;77.00
5200;DHT22;2619;47.868;11.892;2022-07-11T13:10:20;25.60;73.90
5200;DHT22;2619;47.868;11.892;2022-07-11T13:12:47;25.70;80.60
5200;DHT22;2619;47.868;11.892;2022-07-11T13:15:15;26.00;77.00
5200;DHT22;2619;47.868;11.892;2022-07-11T13:17:50;26.10;76.40
5200;DHT22;2619;47.868;11.892;2022-07-11T13:20:21;26.00;76.70
5200;DHT22;2619;47.868;11.892;2022-07-11T13:22:49;25.70;79.20
5200;DHT22;2619;47.868;11.892;2022-07-11T13:25:17;25.40;79.90
5200;DHT22;2619;47.868;11.892;2022-07-11T13:27:44;25.60;77.80
5200;DHT22;2619;47.868;11.892;2022-07-11T13:30:14;25.70;77.40
5200;DHT22;2619;47.868;11.892;2022-07-11T13:32:46;26.20;77.00
5200;DHT22;2619;47.868;11.892;2022-07-11T13:35:13;26.10;75.00
5200;DHT22;2619;47.868;11.892;2022-07-11T13:37:40;26.00;76.90
5200;DHT22;2619;47.868;11.892;2022-07-11T13:40:11;25.70;81.00
5200;DHT22;2619;47.868;11.892;2022-07-11T13:42:38;26.00;80.80
5200;DHT22;2619;47.868;11.892;2022-07-11T13:45:05;26.00;77.10
5200;DHT22;2619;47.868;11.892;2022-07-11T13:47:31;25.90;77.20
5200;DHT22;2619;47.868;11.892;2022-07-11T13:50:01;25.20;78.60
5200;DHT22;2619;47.868;11.892;2022-07-11T13:52:27;25.20;80.50
5200;DHT22;2619;47.868;11.892;2022-07-11T13:54:53;25.20;79.10
5200;DHT22;2619;47.868;11.892;2022-07-11T13:57:19;25.30;79.40
5200;DHT22;2619;47.868;11.892;2022-07-11T13:59:48;24.90;78.40
5200;DHT22;2619;47.868;11.892;2022-07-11T14:02:14;24.90;84.70
5200;DHT22;2619;47.868;11.892;2022-07-11T14:04:39;24.80;78.50
5200;DHT22;2619;47.868;11.892;2022-07-11T14:07:06;24.40;82.70
5200;DHT22;2619;47.868;11.892;2022-07-11T14:09:33;24.10;87.00
5200;DHT22;2619;47.868;11.892;2022-07-11T14:11:59;24.00;82.80
5200;DHT22;2619;47.868;11.892;2022-07-11T14:14:25;24.10;80.80
5200;DHT22;2619;47.868;11.892;2022-07-11T14:16:51;24.40;82.60
5200;DHT22;2619;47.868;11.892;2022-07-11T14:19:17;24.10;82.00
5200;DHT22;2619;47.868;11.892;2022-07-11T14:21:42;23.70;81.50
5200;DHT22;2619;47.868;11.892;2022-07-11T14:24:08;23.90;82.60
5200;DHT22;2619;47.868;11.892;2022-07-11T14:26:34;24.20;81.90
5200;DHT22;2619;47.868;11.892;2022-07-11T14:29:02;24.90;81.20
5200;DHT22;2619;47.868;11.892;2022-07-11T14:31:28;25.00;80.70
5200;DHT22;2619;47.868;11.892;2022-07-11T14:33:54;25.50;80.60
5200;DHT22;2619;47.868;11.892;2022-07-11T14:36:20;25.90;78.60
5200;DHT22;2619;47.868;11.892;2022-07-11T14:38:46;25.90;81.50
5200;DHT22;2619;47.868;11.892;2022-07-11T14:41:13;25.80;76.20
5200;DHT22;2619;47.868;11.892;2022-07-11T14:43:39;26.00;79.00
5200;DHT22;2619;47.868;11.892;2022-07-11T14:46:05;26.60;82.70
5200;DHT22;2619;47.868;11.892;2022-07-11T14:48:32;26.90;77.90
5200;DHT22;2619;47.868;11.892;2022-07-11T14:50:58;27.10;76.40
5200;DHT22;2619;47.868;11.892;2022-07-11T14:53:24;27.40;75.80
5200;DHT22;2619;47.868;11.892;2022-07-11T14:55:51;27.40;76.30
5200;DHT22;2619;47.868;11.892;2022-07-11T14:58:17;26.90;76.20
5200;DHT22;2619;47.868;11.892;2022-07-11T15:00:42;26.70;79.10
5200;DHT22;2619;47.868;11.892;2022-07-11T15:03:13;26.70;76.90
5200;DHT22;2619;47.868;11.892;2022-07-11T15:05:58;26.80;75.80
5200;DHT22;2619;47.868;11.892;2022-07-11T15:08:24;27.00;74.50
5200;DHT22;2619;47.868;11.892;2022-07-11T15:11:08;26.40;76.10
5200;DHT22;2619;47.868;11.892;2022-07-11T15:13:53;25.90;77.20
5200;DHT22;2619;47.868;11.892;2022-07-11T15:16:18;26.00;80.30
5200;DHT22;2619;47.868;11.892;2022-07-11T15:18:44;26.30;76.30
5200;DHT22;2619;47.868;11.892;2022-07-11T15:21:10;26.50;74.30
5200;DHT22;2619;47.868;11.892;2022-07-11T15:23:36;26.10;77.20
5200;DHT22;2619;47.868;11.892;2022-07-11T15:26:01;25.70;78.30
5200;DHT22;2619;47.868;11.892;2022-07-11T15:28:27;25.60;77.70
5200;DHT22;2619;47.868;11.892;2022-07-11T15:30:53;25.50;79.70
5200;DHT22;2619;47.868;11.892;2022-07-11T15:33:19;25.50;78.30
5200;DHT22;2619;47.868;11.892;2022-07-11T15:35:48;25.60;77.50
5200;DHT22;2619;47.868;11.892;2022-07-11T15:38:15;25.10;79.10
5200;DHT22;2619;47.868;11.892;2022-07-11T15:40:40;24.90;78.20
5200;DHT22;2619;47.868;11.892;2022-07-11T15:43:06;24.90;81.20
5200;DHT22;2619;47.868;11.892;2022-07-11T15:45:32;25.10;81.00
5200;DHT22;2619;47.868;11.892;2022-07-11T15:47:58;25.10;80.70
5200;DHT22;2619;47.868;11.892;2022-07-11T15:50:24;25.40;82.50
5200;DHT22;2619;47.868;11.892;2022-07-11T15:52:49;25.80;79.80
5200;DHT22;2619;47.868;11.892;2022-07-11T15:55:15;25.90;76.00
5200;DHT22;2619;47.868;11.892;2022-07-11T15:57:41;26.30;76.90
5200;DHT22;2619;47.868;11.892;2022-07-11T16:00:07;26.50;78.60
5200;DHT22;2619;47.868;11.892;2022-07-11T16:02:33;26.20;76.80
5200;DHT22;2619;47.868;11.892;2022-07-11T16:04:59;25.80;79.80
5200;DHT22;2619;47.868;11.892;2022-07-11T16:07:26;25.40;79.20
5200;DHT22;2619;47.868;11.892;2022-07-11T16:09:52;25.20;82.60
5200;DHT22;2619;47.868;11.892;2022-07-11T16:12:17;25.20;78.70
5200;DHT22;2619;47.868;11.892;2022-07-11T16:14:43;25.90;80.80
5200;DHT22;2619;47.868;11.892;2022-07-11T16:17:09;26.90;78.60
5200;DHT22;2619;47.868;11.892;2022-07-11T16:19:35;26.40;77.90